createdAt,value
2018-04-18T00:01:37.704Z,21.61
2018-04-18T00:04:04.580Z,21.64
2018-04-18T00:06:31.420Z,21.63
2018-04-18T00:09:00.315Z,21.57
2018-04-18T00:11:27.261Z,21.57
2018-04-18T00:13:54.057Z,21.56
2018-04-18T00:16:20.904Z,21.58
2018-04-18T00:18:47.779Z,21.58
2018-04-18T00:21:14.690Z,21.54
2018-04-18T00:23:41.575Z,21.49
2018-04-18T00:26:08.408Z,21.51
2018-04-18T00:28:35.463Z,21.50
2018-04-18T00:31:02.444Z,21.44
2018-04-18T00:33:29.250Z,21.49
2018-04-18T00:35:56.299Z,21.46
2018-04-18T00:38:23.202Z,21.46
2018-04-18T00:40:50.177Z,21.47
2018-04-18T00:43:17.370Z,21.46
2018-04-18T00:45:44.168Z,21.49
2018-04-18T00:48:10.983Z,21.41
2018-04-18T00:50:37.826Z,21.39
2018-04-18T00:53:05.251Z,21.38
2018-04-18T00:55:32.127Z,21.38
2018-04-18T00:58:00.163Z,21.39
2018-04-18T01:00:27.519Z,21.39
2018-04-18T01:02:54.628Z,21.38
2018-04-18T01:05:21.436Z,21.38
2018-04-18T01:07:48.283Z,21.33
2018-04-18T01:10:15.222Z,21.34
2018-04-18T01:12:42.165Z,21.32
2018-04-18T01:15:12.422Z,21.34
2018-04-18T01:17:39.365Z,21.32
2018-04-18T01:20:06.277Z,21.32
2018-04-18T01:22:33.561Z,21.31
2018-04-18T01:25:00.475Z,21.30
2018-04-18T01:27:30.162Z,21.26
2018-04-18T01:29:57.218Z,21.26
2018-04-18T01:32:25.887Z,21.27
2018-04-18T01:34:53.027Z,21.24
2018-04-18T01:37:24.886Z,21.23
2018-04-18T01:39:50.349Z,21.23
2018-04-18T01:42:17.477Z,21.21
2018-04-18T01:44:44.221Z,21.21
2018-04-18T01:47:11.064Z,21.23
2018-04-18T01:49:37.912Z,21.21
2018-04-18T01:52:04.893Z,21.20
2018-04-18T01:54:31.740Z,21.21
2018-04-18T01:56:58.572Z,21.15
2018-04-18T01:59:25.448Z,21.20
2018-04-18T02:01:52.320Z,21.14
2018-04-18T02:04:22.237Z,21.12
2018-04-18T02:06:49.178Z,21.14
2018-04-18T02:09:19.570Z,21.16
2018-04-18T02:11:46.448Z,21.13
2018-04-18T02:14:13.395Z,21.12
2018-04-18T02:16:40.240Z,21.11
2018-04-18T02:19:07.121Z,21.10
2018-04-18T02:21:33.920Z,21.10
2018-04-18T02:24:00.799Z,21.09
2018-04-18T02:26:27.745Z,21.06
2018-04-18T02:28:54.990Z,21.07
2018-04-18T02:31:21.799Z,21.06
2018-04-18T02:33:48.747Z,21.05
2018-04-18T02:36:15.686Z,21.05
2018-04-18T02:38:42.635Z,21.07
2018-04-18T02:41:09.472Z,21.03
2018-04-18T02:43:36.349Z,21.04
2018-04-18T02:46:03.259Z,21.01
2018-04-18T02:48:30.135Z,21.00
2018-04-18T02:50:56.945Z,20.99
2018-04-18T02:53:23.891Z,21.01
2018-04-18T02:55:50.766Z,21.00
2018-04-18T02:58:17.582Z,20.98
2018-04-18T03:00:44.449Z,20.98
2018-04-18T03:03:11.265Z,20.97
2018-04-18T03:05:38.594Z,20.93
2018-04-18T03:08:06.355Z,20.92
2018-04-18T03:10:34.620Z,20.91
2018-04-18T03:13:01.420Z,20.88
2018-04-18T03:15:28.233Z,20.92
2018-04-18T03:17:55.072Z,20.88
2018-04-18T03:20:21.957Z,20.88
2018-04-18T03:22:48.761Z,20.87
2018-04-18T03:25:15.633Z,20.85
2018-04-18T03:27:42.447Z,20.86
2018-04-18T03:30:09.283Z,20.86
2018-04-18T03:32:36.172Z,20.84
2018-04-18T03:35:06.046Z,20.82
2018-04-18T03:37:32.885Z,20.84
2018-04-18T03:39:59.764Z,20.84
2018-04-18T03:42:26.573Z,20.82
2018-04-18T03:44:53.410Z,20.84
2018-04-18T03:47:20.256Z,20.82
2018-04-18T03:49:47.134Z,20.81
2018-04-18T03:52:13.936Z,20.81
2018-04-18T03:54:40.812Z,20.79
2018-04-18T03:57:07.619Z,20.82
2018-04-18T03:59:34.569Z,20.80
2018-04-18T04:02:01.214Z,20.79
2018-04-18T04:04:27.860Z,20.79
2018-04-18T04:06:54.490Z,20.92
2018-04-18T04:09:21.093Z,20.87
2018-04-18T04:11:47.764Z,20.83
2018-04-18T04:14:14.447Z,20.86
2018-04-18T04:16:41.003Z,20.86
2018-04-18T04:19:07.671Z,20.84
2018-04-18T04:21:34.280Z,21.06
2018-04-18T04:24:00.943Z,21.25
2018-04-18T04:26:27.639Z,21.12
2018-04-18T04:28:54.272Z,21.11
2018-04-18T04:31:20.872Z,21.22
2018-04-18T04:33:47.547Z,21.28
2018-04-18T04:36:14.150Z,21.39
2018-04-18T04:38:40.814Z,21.40
2018-04-18T04:41:07.435Z,21.42
2018-04-18T04:43:34.093Z,21.39
2018-04-18T04:46:00.697Z,21.41
2018-04-18T04:48:27.373Z,21.39
2018-04-18T04:50:54.044Z,21.37
2018-04-18T04:53:20.678Z,21.38
2018-04-18T04:55:47.309Z,21.41
2018-04-18T04:58:13.951Z,21.43
2018-04-18T05:00:40.557Z,21.48
2018-04-18T05:03:07.191Z,21.64
2018-04-18T05:05:33.879Z,21.66
2018-04-18T05:08:00.478Z,21.65
2018-04-18T05:10:27.128Z,21.66
2018-04-18T05:12:53.762Z,21.69
2018-04-18T05:15:20.400Z,21.72
2018-04-18T05:17:47.076Z,21.79
2018-04-18T05:20:13.676Z,21.96
2018-04-18T05:22:40.359Z,21.89
2018-04-18T05:25:07.049Z,21.91
2018-04-18T05:27:33.727Z,21.95
2018-04-18T05:30:00.351Z,22.19
2018-04-18T05:32:27.024Z,22.22
2018-04-18T05:34:53.655Z,22.29
2018-04-18T05:37:20.303Z,22.32
2018-04-18T05:39:46.939Z,22.35
2018-04-18T05:42:13.615Z,22.46
2018-04-18T05:44:40.230Z,22.50
2018-04-18T05:47:06.868Z,22.55
2018-04-18T05:49:33.513Z,22.68
2018-04-18T05:52:00.146Z,22.82
2018-04-18T05:54:26.895Z,22.79
2018-04-18T05:56:53.583Z,22.83
2018-04-18T05:59:20.204Z,22.95
2018-04-18T06:01:46.838Z,22.91
2018-04-18T06:04:13.473Z,22.94
2018-04-18T06:06:40.101Z,23.02
2018-04-18T06:09:06.760Z,23.03
2018-04-18T06:11:33.402Z,23.02
2018-04-18T06:14:00.039Z,22.99
2018-04-18T06:16:26.675Z,23.01
2018-04-18T06:18:53.323Z,23.02
2018-04-18T06:21:20.099Z,23.17
2018-04-18T06:23:46.742Z,23.33
2018-04-18T06:26:13.369Z,23.27
2018-04-18T06:28:40.006Z,23.45
2018-04-18T06:31:06.610Z,23.52
2018-04-18T06:33:33.284Z,23.47
2018-04-18T06:35:59.944Z,23.47
2018-04-18T06:38:26.560Z,23.46
2018-04-18T06:40:55.823Z,23.45
2018-04-18T06:43:22.469Z,23.48
2018-04-18T06:45:49.138Z,23.49
2018-04-18T06:48:16.289Z,23.60
2018-04-18T06:50:42.922Z,23.67
2018-04-18T06:53:09.589Z,23.61
2018-04-18T06:55:36.226Z,23.65
2018-04-18T06:58:02.863Z,23.78
2018-04-18T07:00:29.520Z,23.72
2018-04-18T07:02:56.187Z,23.79
2018-04-18T07:05:22.820Z,23.85
2018-04-18T07:07:49.412Z,23.90
2018-04-18T07:10:16.090Z,23.78
2018-04-18T07:12:42.773Z,23.85
2018-04-18T07:15:09.414Z,23.93
2018-04-18T07:17:36.100Z,24.01
2018-04-18T07:20:02.708Z,24.04
2018-04-18T07:22:29.353Z,24.00
2018-04-18T07:24:56.202Z,24.02
2018-04-18T07:27:22.855Z,24.09
2018-04-18T07:29:49.466Z,24.09
2018-04-18T07:32:16.136Z,24.03
2018-04-18T07:34:42.741Z,24.07
2018-04-18T07:37:09.389Z,23.99
2018-04-18T07:39:36.041Z,23.95
2018-04-18T07:42:02.783Z,23.95
2018-04-18T07:44:29.419Z,24.00
2018-04-18T07:46:56.044Z,24.03
2018-04-18T07:49:22.770Z,24.15
2018-04-18T07:51:49.403Z,24.11
2018-04-18T07:54:16.072Z,24.15
2018-04-18T07:56:42.716Z,24.11
2018-04-18T07:59:09.315Z,24.14
2018-04-18T08:01:35.974Z,24.21
2018-04-18T08:04:02.633Z,24.17
2018-04-18T08:06:29.267Z,24.24
2018-04-18T08:08:55.946Z,24.33
2018-04-18T08:11:22.576Z,24.39
2018-04-18T08:13:49.219Z,24.38
2018-04-18T08:16:15.886Z,24.48
2018-04-18T08:18:42.491Z,24.60
2018-04-18T08:21:09.196Z,24.90
2018-04-18T08:23:35.840Z,24.69
2018-04-18T08:26:03.530Z,24.56
2018-04-18T08:28:30.192Z,24.42
2018-04-18T08:30:56.847Z,24.45
2018-04-18T08:33:23.513Z,24.35
2018-04-18T08:35:50.157Z,24.38
2018-04-18T08:38:16.938Z,24.50
2018-04-18T08:40:43.581Z,24.54
2018-04-18T08:43:10.270Z,24.47
2018-04-18T08:45:36.903Z,24.51
2018-04-18T08:48:03.501Z,24.48
2018-04-18T08:50:30.167Z,24.43
2018-04-18T08:52:56.832Z,24.50
2018-04-18T08:55:23.488Z,24.57
2018-04-18T08:57:50.146Z,24.52
2018-04-18T09:00:16.789Z,24.48
2018-04-18T09:02:43.423Z,24.56
2018-04-18T09:05:10.104Z,24.62
2018-04-18T09:07:36.749Z,24.66
2018-04-18T09:10:03.409Z,24.68
2018-04-18T09:12:30.072Z,24.66
2018-04-18T09:14:56.683Z,24.67
2018-04-18T09:17:23.311Z,24.59
2018-04-18T09:19:49.992Z,24.70
2018-04-18T09:22:16.599Z,24.83
2018-04-18T09:24:43.273Z,24.76
2018-04-18T09:27:09.885Z,24.80
2018-04-18T09:29:36.552Z,24.76
2018-04-18T09:32:03.205Z,24.80
2018-04-18T09:34:29.852Z,24.84
2018-04-18T09:36:56.511Z,24.82
2018-04-18T09:39:23.209Z,24.83
2018-04-18T09:41:49.847Z,24.87
2018-04-18T09:44:16.578Z,24.86
2018-04-18T09:46:43.149Z,24.88
2018-04-18T09:49:09.820Z,24.91
2018-04-18T09:51:36.467Z,24.96
2018-04-18T09:54:03.072Z,24.95
2018-04-18T09:56:29.711Z,25.03
2018-04-18T09:58:56.349Z,25.03
2018-04-18T10:01:22.998Z,25.04
2018-04-18T10:03:49.650Z,25.05
2018-04-18T10:06:16.294Z,25.03
2018-04-18T10:08:42.980Z,25.00
2018-04-18T10:11:09.637Z,25.07
2018-04-18T10:13:36.277Z,25.07
2018-04-18T10:16:02.980Z,25.09
2018-04-18T10:18:29.643Z,25.06
2018-04-18T10:20:56.765Z,25.13
2018-04-18T10:23:23.374Z,25.29
2018-04-18T10:25:50.057Z,25.10
2018-04-18T10:28:16.668Z,25.18
2018-04-18T10:30:43.397Z,25.22
2018-04-18T10:33:10.009Z,25.18
2018-04-18T10:35:36.689Z,25.31
2018-04-18T10:38:03.328Z,25.23
2018-04-18T10:40:30.005Z,25.30
2018-04-18T10:42:56.668Z,25.25
2018-04-18T10:45:23.277Z,25.28
2018-04-18T10:47:49.944Z,25.24
2018-04-18T10:50:16.582Z,25.36
2018-04-18T10:52:43.180Z,25.38
2018-04-18T10:55:09.824Z,25.32
2018-04-18T10:57:36.455Z,25.37
2018-04-18T11:00:03.240Z,25.40
2018-04-18T11:02:29.906Z,25.37
2018-04-18T11:04:56.507Z,25.41
2018-04-18T11:07:23.154Z,25.44
2018-04-18T11:09:49.846Z,25.45
2018-04-18T11:12:17.564Z,25.45
2018-04-18T11:14:44.240Z,25.35
2018-04-18T11:17:10.888Z,25.46
2018-04-18T11:19:37.699Z,25.50
2018-04-18T11:22:04.351Z,25.46
2018-04-18T11:24:31.002Z,25.52
2018-04-18T11:26:57.719Z,25.52
2018-04-18T11:29:24.293Z,25.60
2018-04-18T11:31:50.929Z,25.66
2018-04-18T11:34:17.572Z,25.72
2018-04-18T11:36:44.222Z,25.78
2018-04-18T11:39:10.930Z,25.90
2018-04-18T11:41:37.567Z,25.85
2018-04-18T11:44:04.238Z,25.81
2018-04-18T11:46:30.891Z,25.89
2018-04-18T11:48:57.495Z,25.85
2018-04-18T11:51:24.162Z,25.86
2018-04-18T11:53:50.825Z,25.81
2018-04-18T11:56:17.512Z,25.91
2018-04-18T11:58:44.120Z,26.00
2018-04-18T12:01:10.835Z,25.85
2018-04-18T12:03:37.485Z,25.89
2018-04-18T12:06:04.135Z,25.82
2018-04-18T12:08:30.774Z,25.80
2018-04-18T12:10:57.444Z,25.78
2018-04-18T12:13:24.084Z,25.72
2018-04-18T12:15:50.736Z,25.74
2018-04-18T12:18:17.336Z,25.83
2018-04-18T12:20:44.197Z,25.91
2018-04-18T12:23:10.757Z,25.81
2018-04-18T12:25:37.397Z,25.78
2018-04-18T12:28:04.030Z,25.91
2018-04-18T12:30:30.720Z,25.87
2018-04-18T12:32:57.359Z,25.91
2018-04-18T12:35:23.968Z,25.95
2018-04-18T12:37:50.646Z,25.90
2018-04-18T12:40:17.288Z,25.75
2018-04-18T12:42:43.936Z,25.81
2018-04-18T12:45:10.640Z,26.03
2018-04-18T12:47:37.236Z,26.06
2018-04-18T12:50:03.895Z,25.98
2018-04-18T12:52:30.571Z,26.03
2018-04-18T12:54:57.202Z,26.13
2018-04-18T12:57:23.830Z,26.09
2018-04-18T12:59:50.553Z,26.07
2018-04-18T13:02:17.189Z,26.15
2018-04-18T13:04:43.813Z,26.16
2018-04-18T13:07:10.468Z,26.17
2018-04-18T13:09:37.102Z,26.17
2018-04-18T13:12:03.756Z,26.15
2018-04-18T13:14:30.433Z,25.98
2018-04-18T13:16:57.075Z,26.08
2018-04-18T13:19:23.711Z,26.04
2018-04-18T13:21:50.405Z,26.07
2018-04-18T13:24:17.042Z,26.08
2018-04-18T13:26:43.696Z,26.14
2018-04-18T13:29:10.383Z,26.14
2018-04-18T13:31:37.028Z,26.17
2018-04-18T13:34:03.638Z,26.18
2018-04-18T13:36:30.688Z,26.20
2018-04-18T13:38:57.342Z,26.23
2018-04-18T13:41:23.963Z,26.22
2018-04-18T13:43:50.664Z,26.15
2018-04-18T13:46:17.660Z,26.24
2018-04-18T13:48:44.375Z,26.21
2018-04-18T13:51:11.043Z,26.20
2018-04-18T13:53:37.676Z,26.28
2018-04-18T13:56:04.355Z,26.19
2018-04-18T13:58:30.992Z,26.16
2018-04-18T14:00:57.623Z,26.21
2018-04-18T14:03:24.286Z,26.27
2018-04-18T14:05:50.919Z,26.25
2018-04-18T14:08:17.563Z,26.27
2018-04-18T14:10:44.290Z,26.26
2018-04-18T14:13:10.936Z,26.25
2018-04-18T14:15:37.879Z,26.14
2018-04-18T14:18:04.564Z,26.24
2018-04-18T14:20:31.226Z,26.23
2018-04-18T14:22:57.832Z,26.23
2018-04-18T14:25:24.481Z,26.27
2018-04-18T14:27:51.120Z,26.29
2018-04-18T14:30:17.828Z,26.28
2018-04-18T14:32:44.489Z,26.34
2018-04-18T14:35:11.102Z,26.24
2018-04-18T14:37:37.740Z,26.21
2018-04-18T14:40:04.417Z,26.24
2018-04-18T14:42:31.014Z,26.17
2018-04-18T14:44:57.681Z,26.21
2018-04-18T14:47:24.356Z,26.18
2018-04-18T14:49:50.995Z,26.07
2018-04-18T14:52:17.667Z,26.21
2018-04-18T14:54:44.261Z,26.31
2018-04-18T14:57:10.907Z,26.29
2018-04-18T14:59:37.588Z,26.24
2018-04-18T15:02:05.438Z,26.13
2018-04-18T15:04:30.866Z,26.05
2018-04-18T15:06:57.512Z,26.15
2018-04-18T15:09:24.174Z,26.06
2018-04-18T15:11:50.815Z,26.09
2018-04-18T15:14:17.482Z,26.13
2018-04-18T15:16:44.119Z,26.11
2018-04-18T15:19:10.760Z,25.88
2018-04-18T15:21:37.442Z,25.88
2018-04-18T15:24:04.031Z,26.05
2018-04-18T15:26:30.719Z,25.92
2018-04-18T15:28:57.351Z,25.91
2018-04-18T15:31:24.001Z,25.78
2018-04-18T15:33:50.636Z,25.77
2018-04-18T15:36:17.278Z,25.82
2018-04-18T15:38:43.910Z,25.86
2018-04-18T15:41:10.618Z,25.63
2018-04-18T15:43:37.262Z,25.80
2018-04-18T15:46:03.863Z,25.69
2018-04-18T15:48:30.544Z,25.71
2018-04-18T15:50:57.181Z,25.55
2018-04-18T15:53:23.831Z,25.58
2018-04-18T15:55:50.548Z,25.57
2018-04-18T15:58:17.152Z,25.59
2018-04-18T16:00:43.811Z,25.56
2018-04-18T16:03:10.429Z,25.54
2018-04-18T16:05:37.110Z,25.48
2018-04-18T16:08:03.749Z,25.44
2018-04-18T16:10:30.416Z,25.52
2018-04-18T16:12:57.026Z,25.33
2018-04-18T16:15:23.690Z,25.26
2018-04-18T16:17:50.342Z,25.32
2018-04-18T16:20:17.035Z,25.34
2018-04-18T16:22:43.709Z,25.33
2018-04-18T16:25:10.345Z,25.33
2018-04-18T16:27:36.978Z,25.30
2018-04-18T16:30:03.656Z,25.28
2018-04-18T16:32:30.365Z,25.19
2018-04-18T16:34:56.927Z,25.12
2018-04-18T16:37:23.572Z,25.12
2018-04-18T16:39:50.199Z,25.03
2018-04-18T16:42:16.815Z,25.02
2018-04-18T16:44:43.471Z,25.05
2018-04-18T16:47:10.080Z,25.00
2018-04-18T16:49:36.755Z,25.00
2018-04-18T16:52:03.350Z,24.99
2018-04-18T16:54:30.022Z,24.93
2018-04-18T16:56:56.681Z,24.89
2018-04-18T16:59:23.293Z,24.91
2018-04-18T17:01:49.929Z,24.88
2018-04-18T17:04:16.567Z,24.85
2018-04-18T17:06:43.275Z,24.85
2018-04-18T17:09:09.844Z,24.89
2018-04-18T17:11:36.492Z,24.85
2018-04-18T17:14:03.134Z,24.77
2018-04-18T17:16:29.835Z,24.79
2018-04-18T17:18:56.497Z,24.75
2018-04-18T17:21:23.134Z,24.69
2018-04-18T17:23:49.787Z,24.64
2018-04-18T17:26:16.425Z,24.64
2018-04-18T17:28:43.062Z,24.74
2018-04-18T17:31:09.694Z,24.69
2018-04-18T17:33:36.409Z,24.69
2018-04-18T17:36:03.007Z,24.68
2018-04-18T17:38:29.647Z,24.66
2018-04-18T17:40:56.349Z,24.63
2018-04-18T17:43:23.013Z,24.64
2018-04-18T17:45:49.686Z,24.60
2018-04-18T17:48:16.324Z,24.59
2018-04-18T17:50:45.081Z,24.57
2018-04-18T17:53:11.761Z,24.56
2018-04-18T17:55:38.465Z,24.55
2018-04-18T17:58:05.179Z,24.53
2018-04-18T18:00:31.803Z,24.52
2018-04-18T18:02:58.478Z,24.50
2018-04-18T18:05:25.117Z,24.48
2018-04-18T18:07:51.747Z,24.49
2018-04-18T18:10:18.353Z,24.47
2018-04-18T18:12:45.068Z,24.45
2018-04-18T18:15:11.705Z,24.44
2018-04-18T18:17:38.349Z,24.42
2018-04-18T18:20:04.943Z,24.40
2018-04-18T18:22:31.623Z,24.37
2018-04-18T18:24:58.265Z,24.36
2018-04-18T18:27:24.897Z,24.35
2018-04-18T18:29:51.536Z,24.34
2018-04-18T18:32:18.139Z,24.31
2018-04-18T18:34:44.778Z,24.29
2018-04-18T18:37:11.447Z,24.31
2018-04-18T18:39:38.090Z,24.27
2018-04-18T18:42:04.763Z,24.25
2018-04-18T18:44:31.431Z,24.24
2018-04-18T18:46:58.059Z,24.23
2018-04-18T18:49:24.698Z,24.19
2018-04-18T18:51:51.292Z,24.17
2018-04-18T18:54:17.968Z,24.16
2018-04-18T18:56:44.634Z,24.14
2018-04-18T18:59:11.308Z,24.12
2018-04-18T19:01:37.903Z,24.11
2018-04-18T19:04:04.575Z,24.08
2018-04-18T19:06:31.171Z,24.06
2018-04-18T19:08:57.861Z,24.03
2018-04-18T19:11:24.493Z,24.02
2018-04-18T19:13:51.151Z,24.00
2018-04-18T19:16:17.790Z,23.97
2018-04-18T19:18:44.462Z,23.97
2018-04-18T19:21:11.135Z,23.95
2018-04-18T19:23:37.771Z,23.93
2018-04-18T19:26:04.433Z,23.91
2018-04-18T19:28:31.076Z,23.90
2018-04-18T19:30:57.708Z,23.85
2018-04-18T19:33:24.345Z,23.84
2018-04-18T19:35:50.991Z,23.81
2018-04-18T19:38:17.632Z,23.80
2018-04-18T19:40:44.277Z,23.77
2018-04-18T19:43:10.948Z,23.76
2018-04-18T19:45:37.793Z,23.77
2018-04-18T19:48:04.477Z,23.72
2018-04-18T19:50:31.111Z,23.74
2018-04-18T19:52:57.740Z,23.72
2018-04-18T19:55:24.392Z,23.72
2018-04-18T19:57:51.026Z,23.70
2018-04-18T20:00:17.666Z,23.68
2018-04-18T20:02:44.326Z,23.66
2018-04-18T20:05:10.988Z,23.66
2018-04-18T20:07:37.570Z,23.62
2018-04-18T20:10:04.254Z,23.62
2018-04-18T20:12:30.893Z,23.60
2018-04-18T20:14:57.595Z,23.61
2018-04-18T20:17:24.229Z,23.54
2018-04-18T20:19:51.076Z,23.58
2018-04-18T20:22:17.718Z,23.56
2018-04-18T20:24:44.333Z,23.54
2018-04-18T20:27:11.088Z,23.50
2018-04-18T20:29:37.755Z,23.49
2018-04-18T20:32:04.421Z,23.48
2018-04-18T20:34:31.100Z,23.47
2018-04-18T20:36:57.760Z,23.45
2018-04-18T20:39:24.505Z,23.46
2018-04-18T20:41:51.175Z,23.46
2018-04-18T20:44:17.925Z,23.42
2018-04-18T20:46:44.569Z,23.40
2018-04-18T20:49:11.237Z,23.37
2018-04-18T20:51:37.901Z,23.38
2018-04-18T20:54:04.610Z,23.35
2018-04-18T20:56:31.239Z,23.34
2018-04-18T20:58:57.911Z,23.37
2018-04-18T21:01:24.579Z,23.29
2018-04-18T21:03:51.251Z,23.27
2018-04-18T21:06:17.919Z,23.29
2018-04-18T21:08:44.590Z,23.30
2018-04-18T21:11:11.253Z,23.28
2018-04-18T21:13:37.976Z,23.26
2018-04-18T21:16:04.581Z,23.23
2018-04-18T21:18:31.325Z,23.19
2018-04-18T21:20:57.984Z,23.17
2018-04-18T21:23:24.637Z,23.15
2018-04-18T21:25:51.333Z,23.14
2018-04-18T21:28:17.973Z,23.16
2018-04-18T21:30:44.681Z,23.13
2018-04-18T21:33:11.358Z,23.11
2018-04-18T21:35:38.014Z,23.07
2018-04-18T21:38:04.723Z,23.10
2018-04-18T21:40:31.396Z,23.10
2018-04-18T21:42:58.139Z,23.08
2018-04-18T21:45:24.770Z,23.06
2018-04-18T21:47:51.519Z,23.05
2018-04-18T21:50:18.229Z,23.02
2018-04-18T21:52:44.911Z,22.98
2018-04-18T21:55:11.620Z,22.99
2018-04-18T21:57:38.361Z,22.99
2018-04-18T22:00:05.064Z,22.95
2018-04-18T22:02:31.767Z,22.93
2018-04-18T22:04:58.469Z,22.96
2018-04-18T22:07:25.095Z,22.91
2018-04-18T22:09:51.817Z,22.90
2018-04-18T22:12:18.561Z,22.88
2018-04-18T22:14:45.289Z,22.87
2018-04-18T22:17:11.954Z,22.90
2018-04-18T22:19:38.653Z,22.90
2018-04-18T22:22:05.292Z,22.86
2018-04-18T22:24:31.993Z,22.84
2018-04-18T22:26:58.693Z,22.83
2018-04-18T22:29:25.424Z,22.79
2018-04-18T22:31:52.054Z,22.79
2018-04-18T22:34:18.718Z,22.85
2018-04-18T22:36:45.389Z,22.81
2018-04-18T22:39:12.128Z,22.79
2018-04-18T22:41:38.807Z,22.77
2018-04-18T22:44:05.505Z,22.77
2018-04-18T22:46:32.227Z,22.75
2018-04-18T22:48:58.857Z,22.73
2018-04-18T22:51:25.517Z,22.69
2018-04-18T22:53:52.234Z,22.69
2018-04-18T22:56:18.932Z,22.66
2018-04-18T22:58:45.656Z,22.65
2018-04-18T23:01:12.290Z,22.67
2018-04-18T23:03:38.958Z,22.63
2018-04-18T23:06:05.633Z,22.65
2018-04-18T23:08:32.348Z,22.63
2018-04-18T23:10:59.007Z,22.62
2018-04-18T23:13:25.733Z,22.59
2018-04-18T23:15:52.403Z,22.56
2018-04-18T23:18:19.062Z,22.61
2018-04-18T23:20:45.739Z,22.55
2018-04-18T23:23:12.475Z,22.53
2018-04-18T23:25:39.150Z,22.55
2018-04-18T23:28:05.816Z,22.51
2018-04-18T23:30:32.557Z,22.49
2018-04-18T23:32:59.216Z,22.50
2018-04-18T23:35:25.844Z,22.53
2018-04-18T23:37:52.524Z,22.47
2018-04-18T23:40:19.198Z,22.50
2018-04-18T23:42:46.020Z,22.46
2018-04-18T23:45:12.652Z,22.45
2018-04-18T23:47:39.319Z,22.47
2018-04-18T23:50:06.027Z,22.39
2018-04-18T23:52:32.787Z,22.44
2018-04-18T23:54:59.455Z,22.39
2018-04-18T23:57:26.119Z,22.40
2018-04-18T23:59:52.798Z,22.41
